Time;durP1;ratioP1;P1;durP2;ratioP2;P2;SDS_P1;SDS_P2;PMS_P1;PMS_P2;Temp;Humidity;BMP_temperature;BMP_pressure;BME280_temperature;BME280_humidity;BME280_pressure;Samples;Min_cycle;Max_cycle;Signal;HPM_P1;HPM_P2
2023/05/25 01:11:10;;;;;;;;;;;22.20;42.50;;;;;;3047109;19;4602;-22
2023/05/25 01:12:11;;;;;;;;;;;22.20;42.50;;;;;;3051805;19;4618;-22
2023/05/25 01:13:11;;;;;;;;;;;22.20;42.50;;;;;;3050566;19;4610;-29
2023/05/25 01:14:12;;;;;;;;;;;22.20;42.50;;;;;;3051568;19;4519;-31
2023/05/25 01:15:12;;;;;;;;;;;22.10;42.40;;;;;;3051568;19;4550;-31
2023/05/25 01:16:14;;;;;;;;;;;22.10;42.50;;;;;;3054342;19;4506;-31
2023/05/25 01:17:14;;;;;;;;;;;22.20;42.40;;;;;;3052354;19;4529;-30
2023/05/25 01:18:15;;;;;;;;;;;22.20;42.60;;;;;;3053878;19;909;-32
2023/05/25 01:19:17;;;;;;;;;;;22.20;42.40;;;;;;3048017;19;4359;-66
2023/05/25 01:20:18;;;;;;;;;;;22.10;42.50;;;;;;3044525;19;5168;-67
2023/05/25 01:21:21;;;;;;;;;;;22.10;42.50;;;;;;3050199;19;4600;-81
2023/05/25 01:22:52;;;;;;;;;;;22.10;42.40;;;;;;3048978;19;5128;-81
2023/05/25 01:23:58;;;;;;;;;;;22.10;42.40;;;;;;3050921;19;4995;-81
2023/05/25 01:25:01;;;;;;;;;;;22.10;42.60;;;;;;3050444;19;4414;-81
2023/05/25 01:26:03;;;;;;;;;;;22.10;42.50;;;;;;3049122;19;4416;-81
2023/05/25 01:27:31;;;;;;;;;;;22.10;42.30;;;;;;3049937;19;4402;-81
2023/05/25 01:28:36;;;;;;;;;;;22.10;42.40;;;;;;2947508;19;2004531;-82
2023/05/25 01:29:37;;;;;;;;;;;22.10;42.40;;;;;;3052768;19;4857;-81
2023/05/25 01:30:39;;;;;;;;;;;22.10;42.30;;;;;;3050250;19;4563;-81
2023/05/25 01:31:40;;;;;;;;;;;22.10;42.40;;;;;;3048727;19;5048;-81
2023/05/25 01:32:41;;;;;;;;;;;22.10;42.40;;;;;;3050566;19;5123;-82
2023/05/25 01:33:43;;;;;;;;;;;22.00;42.50;;;;;;3052398;19;5059;-81
2023/05/25 01:34:43;;;;;;;;;;;22.10;42.30;;;;;;3052235;19;5517;-81
2023/05/25 01:35:45;;;;;;;;;;;22.10;42.30;;;;;;3050860;19;6149;-81
2023/05/25 01:36:46;;;;;;;;;;;22.10;42.50;;;;;;3050372;19;4560;-81
2023/05/25 01:37:47;;;;;;;;;;;22.10;42.50;;;;;;3050339;19;5444;-81
2023/05/25 01:38:48;;;;;;;;;;;22.00;42.50;;;;;;3052109;19;4595;-82
2023/05/25 01:39:49;;;;;;;;;;;22.10;42.60;;;;;;3052450;19;4617;-81
2023/05/25 01:40:50;;;;;;;;;;;22.10;42.50;;;;;;3053098;19;4407;-81
2023/05/25 01:41:50;;;;;;;;;;;22.10;42.50;;;;;;3050547;19;4358;-81
2023/05/25 01:42:51;;;;;;;;;;;22.10;42.50;;;;;;3050031;19;5115;-82
2023/05/25 01:43:51;;;;;;;;;;;22.00;42.40;;;;;;3048711;19;4475;-82
2023/05/25 01:44:52;;;;;;;;;;;22.00;42.50;;;;;;3053030;19;4552;-81
2023/05/25 01:45:57;;;;;;;;;;;22.10;42.50;;;;;;3051476;19;5035;-82
2023/05/25 01:47:03;;;;;;;;;;;22.00;42.50;;;;;;3052357;19;4731;-81
2023/05/25 01:48:13;;;;;;;;;;;22.10;42.60;;;;;;3052283;19;5151;-82
2023/05/25 01:49:30;;;;;;;;;;;22.10;42.60;;;;;;3050110;19;4927;-81
2023/05/25 01:50:37;;;;;;;;;;;21.70;42.10;;;;;;3053984;19;5143;-82
2023/05/25 01:51:57;;;;;;;;;;;22.10;42.40;;;;;;3054049;19;5208;-82
2023/05/25 01:53:01;;;;;;;;;;;22.00;42.50;;;;;;3053516;19;5153;-81
2023/05/25 01:54:06;;;;;;;;;;;22.10;42.50;;;;;;3051578;19;5068;-81
2023/05/25 01:55:10;;;;;;;;;;;22.00;42.60;;;;;;3054147;19;5068;-81
2023/05/25 01:56:10;;;;;;;;;;;22.00;42.50;;;;;;3052871;19;5127;-81
2023/05/25 01:57:12;;;;;;;;;;;22.00;42.40;;;;;;3054942;19;5305;-81
2023/05/25 01:58:13;;;;;;;;;;;22.00;42.30;;;;;;3054546;19;4603;-82
2023/05/25 01:59:15;;;;;;;;;;;22.00;42.40;;;;;;3054224;19;1010;-82
2023/05/25 02:00:16;;;;;;;;;;;22.00;42.50;;;;;;3053702;19;4875;-82
2023/05/25 02:01:17;;;;;;;;;;;22.00;42.40;;;;;;3054894;19;4623;-81
2023/05/25 02:02:18;;;;;;;;;;;22.00;42.50;;;;;;3053414;19;4632;-81
2023/05/25 02:03:21;;;;;;;;;;;22.00;42.50;;;;;;3052753;19;5415;-81
2023/05/25 02:04:22;;;;;;;;;;;22.00;42.50;;;;;;3052570;19;4486;-82
2023/05/25 02:05:23;;;;;;;;;;;22.00;42.50;;;;;;3053589;19;4940;-82
2023/05/25 02:06:23;;;;;;;;;;;22.00;42.40;;;;;;3054061;19;5363;-83
2023/05/25 02:07:24;;;;;;;;;;;22.00;42.40;;;;;;3053392;19;4503;-81
2023/05/25 02:08:25;;;;;;;;;;;22.00;42.40;;;;;;3054781;19;4499;-82
2023/05/25 02:09:25;;;;;;;;;;;22.00;42.40;;;;;;3054583;19;5094;-81
2023/05/25 02:10:26;;;;;;;;;;;22.00;42.50;;;;;;3054185;19;4403;-82
2023/05/25 02:11:27;;;;;;;;;;;22.00;42.30;;;;;;3054911;19;5165;-85
2023/05/25 02:12:27;;;;;;;;;;;22.00;42.50;;;;;;3054652;19;4600;-82
2023/05/25 02:13:28;;;;;;;;;;;22.00;42.50;;;;;;3055407;19;4557;-82
2023/05/25 02:14:29;;;;;;;;;;;22.00;42.50;;;;;;3054636;19;4583;-82
2023/05/25 02:15:30;;;;;;;;;;;22.00;42.40;;;;;;3054609;19;4409;-82
2023/05/25 02:16:31;;;;;;;;;;;22.00;42.50;;;;;;3052514;19;5138;-82
2023/05/25 02:17:32;;;;;;;;;;;22.00;42.40;;;;;;3053304;19;4511;-82
2023/05/25 02:18:33;;;;;;;;;;;22.00;42.60;;;;;;3052929;19;4668;-83
2023/05/25 02:19:34;;;;;;;;;;;21.90;42.50;;;;;;3052239;19;6210;-78
2023/05/25 02:20:35;;;;;;;;;;;22.00;42.40;;;;;;3053327;19;5201;-78
2023/05/25 02:21:37;;;;;;;;;;;22.00;42.40;;;;;;3053019;19;5172;-78
2023/05/25 02:22:37;;;;;;;;;;;22.00;42.40;;;;;;3053288;19;5127;-78
2023/05/25 02:23:38;;;;;;;;;;;22.00;42.50;;;;;;3052952;19;5472;-78
2023/05/25 02:24:38;;;;;;;;;;;21.90;42.40;;;;;;3052777;19;5236;-77
2023/05/25 02:25:41;;;;;;;;;;;22.00;42.50;;;;;;3051851;19;4583;-78
2023/05/25 02:26:41;;;;;;;;;;;21.90;42.40;;;;;;3048907;19;4408;-77
2023/05/25 02:27:43;;;;;;;;;;;21.90;42.40;;;;;;3049476;19;5156;-78
2023/05/25 02:28:43;;;;;;;;;;;21.90;42.40;;;;;;3052229;19;4602;-75
2023/05/25 02:29:44;;;;;;;;;;;21.90;42.40;;;;;;3051359;19;5177;-76
2023/05/25 02:30:45;;;;;;;;;;;21.90;42.40;;;;;;3052104;19;5132;-75
2023/05/25 02:31:45;;;;;;;;;;;21.90;42.30;;;;;;3054588;19;5089;-76
2023/05/25 02:32:46;;;;;;;;;;;21.90;42.40;;;;;;3054724;19;5073;-76
2023/05/25 02:33:46;;;;;;;;;;;21.90;42.40;;;;;;3052482;19;5187;-75
2023/05/25 02:34:47;;;;;;;;;;;21.90;42.50;;;;;;3052811;19;4465;-76
2023/05/25 02:35:48;;;;;;;;;;;21.90;42.40;;;;;;3052274;19;4740;-75
2023/05/25 02:36:48;;;;;;;;;;;21.90;42.40;;;;;;3054516;19;4362;-76
2023/05/25 02:37:49;;;;;;;;;;;21.90;42.40;;;;;;3053661;19;4882;-76
2023/05/25 02:38:50;;;;;;;;;;;21.90;42.50;;;;;;3053447;19;5070;-69
2023/05/25 02:39:51;;;;;;;;;;;21.90;42.50;;;;;;3050792;19;5107;-69
2023/05/25 02:40:52;;;;;;;;;;;21.90;42.50;;;;;;3050418;19;4395;-69
2023/05/25 02:41:53;;;;;;;;;;;21.90;42.50;;;;;;3051214;19;4546;-68
2023/05/25 02:42:53;;;;;;;;;;;21.90;42.50;;;;;;3050810;19;6167;-68
2023/05/25 02:43:54;;;;;;;;;;;22.00;42.50;;;;;;3049160;19;4568;-69
2023/05/25 02:44:55;;;;;;;;;;;21.90;42.50;;;;;;3049183;19;5092;-68
2023/05/25 02:45:55;;;;;;;;;;;21.90;42.30;;;;;;3052336;19;5170;-69
2023/05/25 02:46:56;;;;;;;;;;;21.90;42.50;;;;;;3051640;19;4484;-69
2023/05/25 02:47:56;;;;;;;;;;;21.90;42.50;;;;;;3050193;19;5195;-69
2023/05/25 02:48:58;;;;;;;;;;;21.90;42.40;;;;;;3051112;19;5027;-68
2023/05/25 02:49:58;;;;;;;;;;;21.90;42.50;;;;;;3051325;19;5435;-68
2023/05/25 02:50:59;;;;;;;;;;;21.90;42.50;;;;;;3052312;19;4936;-68
2023/05/25 02:52:00;;;;;;;;;;;21.90;42.50;;;;;;3051704;19;5169;-68
2023/05/25 02:53:00;;;;;;;;;;;21.90;42.50;;;;;;3052800;19;4406;-68
2023/05/25 02:54:01;;;;;;;;;;;21.80;42.40;;;;;;3051535;19;4392;-68
2023/05/25 02:55:02;;;;;;;;;;;21.80;42.40;;;;;;3051304;19;4560;-68
2023/05/25 02:56:04;;;;;;;;;;;21.80;42.30;;;;;;3049053;19;4636;-68
2023/05/25 02:57:05;;;;;;;;;;;21.80;42.30;;;;;;3051738;19;5481;-69
2023/05/25 02:58:06;;;;;;;;;;;21.80;42.40;;;;;;3051986;19;4471;-68
2023/05/25 02:59:06;;;;;;;;;;;21.80;42.30;;;;;;3048829;19;4429;-69
2023/05/25 03:00:07;;;;;;;;;;;21.80;42.50;;;;;;3047688;19;5159;-68
2023/05/25 03:01:09;;;;;;;;;;;21.80;42.40;;;;;;3051450;19;4474;-68
2023/05/25 03:02:10;;;;;;;;;;;21.80;42.40;;;;;;3050891;19;6120;-68
2023/05/25 03:03:11;;;;;;;;;;;21.80;42.40;;;;;;3049454;19;5115;-69
2023/05/25 03:04:12;;;;;;;;;;;21.80;42.50;;;;;;3051587;19;854;-68
2023/05/25 03:05:12;;;;;;;;;;;21.80;42.50;;;;;;3051165;19;5068;-69
2023/05/25 03:06:13;;;;;;;;;;;21.80;42.40;;;;;;3053698;19;4589;-69
2023/05/25 03:07:14;;;;;;;;;;;21.80;42.40;;;;;;3054222;19;1857;-68
2023/05/25 03:08:14;;;;;;;;;;;21.80;42.40;;;;;;3052545;19;4893;-69
2023/05/25 03:09:15;;;;;;;;;;;21.80;42.40;;;;;;3052156;19;4532;-68
2023/05/25 03:10:16;;;;;;;;;;;21.60;42.40;;;;;;3051424;19;10114;-69
2023/05/25 03:11:16;;;;;;;;;;;21.80;42.50;;;;;;3049341;19;4489;-68
2023/05/25 03:12:17;;;;;;;;;;;21.80;42.40;;;;;;3053343;19;4587;-68
2023/05/25 03:13:18;;;;;;;;;;;21.80;42.50;;;;;;3050822;19;4388;-68
2023/05/25 03:14:18;;;;;;;;;;;21.80;42.60;;;;;;3051873;19;5129;-69
2023/05/25 03:15:19;;;;;;;;;;;21.80;42.40;;;;;;3053856;19;5109;-68
2023/05/25 03:16:21;;;;;;;;;;;21.80;42.60;;;;;;3052181;19;6111;-69
2023/05/25 03:17:22;;;;;;;;;;;21.80;42.50;;;;;;3052240;19;4906;-68
2023/05/25 03:18:23;;;;;;;;;;;21.80;42.50;;;;;;3052444;19;4645;-69
2023/05/25 03:19:23;;;;;;;;;;;21.80;42.60;;;;;;3051671;19;4512;-69
2023/05/25 03:20:25;;;;;;;;;;;21.80;42.50;;;;;;3053250;19;4740;-68
2023/05/25 03:21:26;;;;;;;;;;;21.80;42.50;;;;;;3052320;19;5130;-68
2023/05/25 03:22:27;;;;;;;;;;;21.80;42.40;;;;;;3051331;19;5129;-68
2023/05/25 03:23:27;;;;;;;;;;;21.80;42.40;;;;;;3051980;19;4508;-68
2023/05/25 03:24:28;;;;;;;;;;;21.80;42.40;;;;;;3052120;19;4700;-69
2023/05/25 03:25:29;;;;;;;;;;;21.80;42.60;;;;;;3051857;19;5233;-69
2023/05/25 03:26:31;;;;;;;;;;;21.80;42.50;;;;;;3051138;19;5433;-68
2023/05/25 03:27:31;;;;;;;;;;;21.80;42.50;;;;;;3050818;19;5207;-69
2023/05/25 03:28:32;;;;;;;;;;;21.70;42.50;;;;;;3052638;19;4687;-69
2023/05/25 03:29:33;;;;;;;;;;;21.70;42.50;;;;;;3054174;19;5324;-69
2023/05/25 03:30:33;;;;;;;;;;;21.70;42.50;;;;;;3053945;19;4532;-68
2023/05/25 03:31:34;;;;;;;;;;;21.80;42.50;;;;;;3052109;19;5807;-68
2023/05/25 03:32:35;;;;;;;;;;;21.70;42.50;;;;;;3053071;19;4417;-68
2023/05/25 03:33:36;;;;;;;;;;;21.70;42.50;;;;;;3052180;19;5114;-68
2023/05/25 03:34:36;;;;;;;;;;;21.70;42.50;;;;;;3052860;19;6159;-69
2023/05/25 03:35:37;;;;;;;;;;;21.70;42.40;;;;;;3051681;19;4923;-68
2023/05/25 03:36:37;;;;;;;;;;;21.70;42.10;;;;;;3054186;19;5485;-68
2023/05/25 03:37:38;;;;;;;;;;;21.80;42.00;;;;;;3050917;19;5042;-68
2023/05/25 03:38:39;;;;;;;;;;;21.80;42.00;;;;;;3051606;19;4662;-75
2023/05/25 03:39:39;;;;;;;;;;;21.90;42.00;;;;;;3054671;19;4408;-75
2023/05/25 03:40:40;;;;;;;;;;;21.90;41.80;;;;;;3052582;19;4640;-75
2023/05/25 03:41:42;;;;;;;;;;;22.00;41.80;;;;;;3052424;19;4786;-76
2023/05/25 03:42:43;;;;;;;;;;;22.10;41.50;;;;;;3053286;19;5138;-75
2023/05/25 03:43:44;;;;;;;;;;;22.20;41.10;;;;;;3054717;19;5029;-75
2023/05/25 03:44:45;;;;;;;;;;;22.30;41.00;;;;;;3053451;19;5151;-76
2023/05/25 03:45:45;;;;;;;;;;;22.40;40.80;;;;;;3053365;19;4535;-75
2023/05/25 03:46:46;;;;;;;;;;;22.50;40.80;;;;;;3052766;19;5093;-76
2023/05/25 03:47:47;;;;;;;;;;;22.50;40.60;;;;;;3053559;19;4512;-76
2023/05/25 03:48:47;;;;;;;;;;;22.50;40.70;;;;;;3054012;19;5995;-86
2023/05/25 03:49:48;;;;;;;;;;;22.50;40.50;;;;;;3053943;19;4940;-83
2023/05/25 03:50:48;;;;;;;;;;;22.50;40.50;;;;;;3052565;19;4708;-84
2023/05/25 03:51:49;;;;;;;;;;;22.50;40.50;;;;;;3052821;19;5437;-84
2023/05/25 03:52:50;;;;;;;;;;;22.50;40.50;;;;;;3053107;19;4439;-85
2023/05/25 03:53:50;;;;;;;;;;;22.40;40.40;;;;;;3052175;19;5124;-86
2023/05/25 03:54:51;;;;;;;;;;;22.50;40.60;;;;;;3055227;19;4918;-82
2023/05/25 03:55:52;;;;;;;;;;;22.50;40.50;;;;;;3052529;19;5006;-83
2023/05/25 03:56:52;;;;;;;;;;;22.60;40.40;;;;;;3051546;19;5140;-84
2023/05/25 03:57:53;;;;;;;;;;;22.70;40.20;;;;;;3051690;19;6009;-86
2023/05/25 03:58:54;;;;;;;;;;;22.70;40.00;;;;;;3053666;19;5048;-86
2023/05/25 03:59:54;;;;;;;;;;;22.80;40.00;;;;;;3051701;19;4904;-84
2023/05/25 04:00:55;;;;;;;;;;;22.80;40.10;;;;;;3052044;19;4902;-84
2023/05/25 04:01:55;;;;;;;;;;;22.80;39.90;;;;;;3053100;19;4935;-85
2023/05/25 04:02:57;;;;;;;;;;;22.80;39.90;;;;;;3053566;19;4763;-87
2023/05/25 04:03:58;;;;;;;;;;;22.80;39.90;;;;;;3053203;19;4445;-84
2023/05/25 04:04:58;;;;;;;;;;;22.80;39.90;;;;;;3052302;19;5089;-83
2023/05/25 04:05:59;;;;;;;;;;;22.70;39.80;;;;;;3051623;19;5036;-84
2023/05/25 04:07:00;;;;;;;;;;;22.80;39.90;;;;;;3051951;19;5092;-86
2023/05/25 04:08:02;;;;;;;;;;;22.70;39.80;;;;;;3051707;19;4406;-83
2023/05/25 04:09:03;;;;;;;;;;;22.70;39.90;;;;;;3055340;19;5015;-85
2023/05/25 04:10:05;;;;;;;;;;;22.70;39.90;;;;;;3054868;19;4763;-84
2023/05/25 04:11:05;;;;;;;;;;;22.70;40.00;;;;;;3052170;19;5095;-81
2023/05/25 04:12:06;;;;;;;;;;;22.70;39.90;;;;;;3055208;19;802;-84
2023/05/25 04:13:07;;;;;;;;;;;22.70;40.00;;;;;;3053445;19;5145;-85
2023/05/25 04:14:07;;;;;;;;;;;22.70;40.00;;;;;;3055130;19;5079;-86
2023/05/25 04:15:08;;;;;;;;;;;22.70;40.00;;;;;;3053429;19;5031;-86
2023/05/25 04:16:11;;;;;;;;;;;22.70;40.00;;;;;;3054186;19;4421;-86
2023/05/25 04:17:11;;;;;;;;;;;22.60;40.10;;;;;;3052626;19;5834;-88
2023/05/25 04:18:12;;;;;;;;;;;22.70;40.10;;;;;;3055027;19;944;-88
2023/05/25 04:19:13;;;;;;;;;;;22.70;40.10;;;;;;3053803;19;5128;-83
2023/05/25 04:20:13;;;;;;;;;;;22.70;40.10;;;;;;3054821;19;956;-85
2023/05/25 04:21:15;;;;;;;;;;;22.70;40.10;;;;;;3055028;19;5134;-86
2023/05/25 04:22:16;;;;;;;;;;;22.60;40.10;;;;;;3054416;19;5061;-84
2023/05/25 04:23:18;;;;;;;;;;;22.60;40.10;;;;;;3054559;19;5108;-84
2023/05/25 04:24:20;;;;;;;;;;;22.60;40.10;;;;;;3053997;19;4950;-85
2023/05/25 04:25:21;;;;;;;;;;;22.60;40.00;;;;;;3053508;19;4557;-86
2023/05/25 04:26:22;;;;;;;;;;;22.60;40.00;;;;;;3052738;19;5134;-87
2023/05/25 04:27:25;;;;;;;;;;;22.60;40.10;;;;;;3055693;19;5006;-83
2023/05/25 04:28:27;;;;;;;;;;;22.60;40.00;;;;;;3054887;19;4707;-83
2023/05/25 04:29:27;;;;;;;;;;;22.60;40.00;;;;;;3056536;19;4528;-85
2023/05/25 04:30:30;;;;;;;;;;;22.60;40.00;;;;;;3055627;19;4535;-85
2023/05/25 04:31:30;;;;;;;;;;;22.50;40.00;;;;;;3055835;19;4423;-85
2023/05/25 04:32:31;;;;;;;;;;;22.50;40.00;;;;;;3056091;19;4383;-84
2023/05/25 04:33:33;;;;;;;;;;;22.50;40.00;;;;;;3054729;19;5058;-85
2023/05/25 04:34:35;;;;;;;;;;;22.50;40.10;;;;;;3053461;19;4852;-86
2023/05/25 04:35:35;;;;;;;;;;;22.50;40.10;;;;;;3054269;19;4502;-85
2023/05/25 04:36:37;;;;;;;;;;;22.50;40.10;;;;;;3054192;19;5010;-85
2023/05/25 04:37:39;;;;;;;;;;;22.50;40.20;;;;;;3054926;19;5042;-84
2023/05/25 04:38:41;;;;;;;;;;;22.50;40.90;;;;;;3054691;19;5221;-85
2023/05/25 04:39:42;;;;;;;;;;;22.50;40.30;;;;;;3055042;19;4525;-85
2023/05/25 04:40:45;;;;;;;;;;;22.50;40.40;;;;;;3055183;19;5110;-87
2023/05/25 04:41:47;;;;;;;;;;;22.50;40.40;;;;;;3055231;19;4534;-86
2023/05/25 04:42:47;;;;;;;;;;;22.60;40.30;;;;;;3055197;19;5143;-85
2023/05/25 04:43:49;;;;;;;;;;;22.60;40.20;;;;;;3054903;19;4382;-86
2023/05/25 04:44:52;;;;;;;;;;;22.60;40.10;;;;;;3055171;19;5094;-84
2023/05/25 04:45:53;;;;;;;;;;;22.60;40.00;;;;;;3056222;19;4604;-84
2023/05/25 04:46:54;;;;;;;;;;;22.60;40.00;;;;;;3055801;19;5159;-84
2023/05/25 04:47:56;;;;;;;;;;;22.60;40.00;;;;;;3053761;19;4531;-88
2023/05/25 04:48:57;;;;;;;;;;;22.70;40.00;;;;;;3055561;19;5142;-88
2023/05/25 04:49:58;;;;;;;;;;;22.70;39.90;;;;;;3055233;19;4997;-87
2023/05/25 04:51:01;;;;;;;;;;;22.70;40.00;;;;;;3055460;19;5114;-85
2023/05/25 04:52:02;;;;;;;;;;;22.70;40.00;;;;;;3053872;19;5063;-86
2023/05/25 04:53:03;;;;;;;;;;;22.70;40.00;;;;;;3054282;19;5090;-86
2023/05/25 04:54:04;;;;;;;;;;;22.70;40.00;;;;;;3054599;19;4638;-87
2023/05/25 04:55:05;;;;;;;;;;;22.70;40.00;;;;;;3054234;19;4568;-86
2023/05/25 04:56:06;;;;;;;;;;;22.70;40.00;;;;;;3054455;19;4297;-85
2023/05/25 04:57:06;;;;;;;;;;;22.60;39.90;;;;;;3051896;19;5391;-84
2023/05/25 04:58:07;;;;;;;;;;;22.70;40.30;;;;;;3053497;19;972;-86
2023/05/25 04:59:08;;;;;;;;;;;22.10;39.60;;;;;;3053227;19;5129;-77
2023/05/25 05:00:10;;;;;;;;;;;22.70;40.10;;;;;;3053618;19;840;-78
2023/05/25 05:01:11;;;;;;;;;;;22.60;40.00;;;;;;3053578;19;5248;-78
2023/05/25 05:02:12;;;;;;;;;;;22.70;40.10;;;;;;3053793;19;893;-78
2023/05/25 05:03:12;;;;;;;;;;;22.60;40.00;;;;;;3053072;19;4464;-78
2023/05/25 05:04:15;;;;;;;;;;;22.70;40.20;;;;;;3052193;19;4648;-78
2023/05/25 05:05:16;;;;;;;;;;;22.60;40.10;;;;;;3053228;19;4506;-76
2023/05/25 05:06:17;;;;;;;;;;;22.60;40.00;;;;;;3053387;19;4641;-78
2023/05/25 05:07:17;;;;;;;;;;;22.70;40.20;;;;;;3052434;19;5135;-78
2023/05/25 05:08:18;;;;;;;;;;;22.50;40.00;;;;;;3050441;19;4764;-78
2023/05/25 05:09:18;;;;;;;;;;;22.60;40.10;;;;;;3050642;19;4428;-87
2023/05/25 05:10:19;;;;;;;;;;;22.60;40.20;;;;;;3051886;19;5281;-91
2023/05/25 05:11:22;;;;;;;;;;;22.60;40.20;;;;;;3056153;19;4543;-87
2023/05/25 05:12:23;;;;;;;;;;;22.60;40.20;;;;;;3053755;19;5295;-81
2023/05/25 05:13:23;;;;;;;;;;;22.70;40.30;;;;;;3053279;19;4953;-84
2023/05/25 05:14:24;;;;;;;;;;;22.60;40.20;;;;;;3052955;19;5825;-85
2023/05/25 05:15:25;;;;;;;;;;;22.60;40.30;;;;;;3052321;19;6267;-85
2023/05/25 05:16:25;;;;;;;;;;;22.60;40.40;;;;;;3053584;19;4670;-84
2023/05/25 05:17:27;;;;;;;;;;;22.60;40.40;;;;;;3051955;19;5046;-86
2023/05/25 05:18:28;;;;;;;;;;;22.60;40.30;;;;;;3052802;19;4462;-87
2023/05/25 05:19:30;;;;;;;;;;;22.60;40.20;;;;;;3053984;19;5048;-85
2023/05/25 05:20:30;;;;;;;;;;;22.60;40.40;;;;;;3053156;19;5119;-84
2023/05/25 05:21:32;;;;;;;;;;;22.60;40.40;;;;;;3054513;19;5061;-88
2023/05/25 05:22:32;;;;;;;;;;;22.60;40.50;;;;;;3053873;19;4559;-85
2023/05/25 05:23:33;;;;;;;;;;;22.60;40.40;;;;;;3053684;19;4987;-85
2023/05/25 05:24:34;;;;;;;;;;;22.60;40.40;;;;;;3052198;19;4581;-85
2023/05/25 05:25:36;;;;;;;;;;;22.60;40.50;;;;;;3053477;19;5260;-87
2023/05/25 05:26:40;;;;;;;;;;;22.60;40.60;;;;;;3053485;19;4475;-84
2023/05/25 05:27:41;;;;;;;;;;;22.50;40.50;;;;;;3051315;19;4558;-86
2023/05/25 05:28:42;;;;;;;;;;;22.50;40.50;;;;;;3054278;19;5364;-86
2023/05/25 05:29:42;;;;;;;;;;;22.50;40.50;;;;;;3054320;19;4638;-84
2023/05/25 05:30:45;;;;;;;;;;;22.50;40.60;;;;;;3052724;19;5075;-71
2023/05/25 05:31:46;;;;;;;;;;;22.50;40.70;;;;;;3051364;19;4381;-71
2023/05/25 05:32:46;;;;;;;;;;;22.50;40.70;;;;;;3052502;19;4984;-81
2023/05/25 05:33:47;;;;;;;;;;;22.10;40.50;;;;;;3053158;19;5093;-83
2023/05/25 05:34:48;;;;;;;;;;;22.50;40.80;;;;;;3053259;19;5030;-81
2023/05/25 05:35:49;;;;;;;;;;;22.50;40.90;;;;;;3052520;19;5024;-83
2023/05/25 05:36:50;;;;;;;;;;;22.50;40.80;;;;;;3054576;19;4366;-81
2023/05/25 05:37:51;;;;;;;;;;;22.50;40.90;;;;;;3051705;19;4569;-82
2023/05/25 05:38:51;;;;;;;;;;;22.50;40.90;;;;;;3052487;19;5053;-83
2023/05/25 05:39:52;;;;;;;;;;;22.50;41.00;;;;;;3052346;19;4593;-83
2023/05/25 05:40:52;;;;;;;;;;;22.50;40.90;;;;;;3052787;19;5079;-82
2023/05/25 05:41:53;;;;;;;;;;;22.50;41.00;;;;;;3051612;19;4988;-82
2023/05/25 05:42:54;;;;;;;;;;;22.50;41.00;;;;;;3052393;19;4593;-82
2023/05/25 05:43:55;;;;;;;;;;;22.50;41.00;;;;;;3052100;19;4690;-82
2023/05/25 05:44:56;;;;;;;;;;;22.50;41.10;;;;;;3052018;19;5096;-81
2023/05/25 05:45:56;;;;;;;;;;;22.50;41.10;;;;;;3052619;19;4414;-81
2023/05/25 05:47:00;;;;;;;;;;;22.50;40.80;;;;;;3052541;19;5101;-82
2023/05/25 05:48:03;;;;;;;;;;;22.50;40.80;;;;;;3052810;19;4399;-81
2023/05/25 05:49:03;;;;;;;;;;;22.50;40.90;;;;;;3052357;19;4503;-81
2023/05/25 05:50:05;;;;;;;;;;;22.50;41.20;;;;;;3052823;19;4377;-83
2023/05/25 05:51:06;;;;;;;;;;;22.50;41.20;;;;;;3051710;19;5106;-80
2023/05/25 05:52:07;;;;;;;;;;;22.60;41.10;;;;;;3052553;19;4398;-81
2023/05/25 05:53:08;;;;;;;;;;;22.60;41.00;;;;;;3049410;19;4485;-82
2023/05/25 05:54:09;;;;;;;;;;;22.70;40.90;;;;;;3049478;19;1208;-84
2023/05/25 05:55:10;;;;;;;;;;;22.70;40.80;;;;;;3049947;19;4489;-82
2023/05/25 05:56:17;;;;;;;;;;;22.80;40.80;;;;;;3050277;19;6286;-82
2023/05/25 05:57:17;;;;;;;;;;;22.80;40.80;;;;;;3052510;19;4523;-81
2023/05/25 05:58:18;;;;;;;;;;;22.70;41.50;;;;;;3052280;19;4692;-81
2023/05/25 05:59:20;;;;;;;;;;;22.80;40.90;;;;;;3051462;19;5872;-82
2023/05/25 06:00:21;;;;;;;;;;;22.80;40.90;;;;;;3050859;19;4944;-81
2023/05/25 06:01:22;;;;;;;;;;;22.80;40.90;;;;;;3051532;19;5121;-81
2023/05/25 06:02:22;;;;;;;;;;;22.80;40.90;;;;;;3049518;19;4626;-82
2023/05/25 06:03:23;;;;;;;;;;;22.80;41.00;;;;;;3051742;19;4614;-77
2023/05/25 06:04:24;;;;;;;;;;;22.80;41.00;;;;;;3051768;19;5042;-84
2023/05/25 06:05:25;;;;;;;;;;;22.80;41.10;;;;;;3051026;19;4562;-83
2023/05/25 06:06:26;;;;;;;;;;;22.70;41.10;;;;;;3049037;19;4471;-84
2023/05/25 06:07:27;;;;;;;;;;;22.70;41.10;;;;;;3049708;19;5299;-84
2023/05/25 06:08:28;;;;;;;;;;;22.70;41.20;;;;;;3049915;19;5014;-79
2023/05/25 06:09:29;;;;;;;;;;;22.70;41.20;;;;;;3049373;19;4980;-69
2023/05/25 06:10:30;;;;;;;;;;;22.70;41.20;;;;;;3051226;19;4478;-70
2023/05/25 06:11:30;;;;;;;;;;;22.70;41.30;;;;;;3048997;19;4369;-70
2023/05/25 06:12:31;;;;;;;;;;;22.80;41.40;;;;;;3048090;19;5017;-70
2023/05/25 06:13:32;;;;;;;;;;;22.80;41.40;;;;;;3050605;19;4707;-70
2023/05/25 06:14:32;;;;;;;;;;;22.80;41.40;;;;;;3049275;19;4541;-70
2023/05/25 06:15:34;;;;;;;;;;;22.70;41.40;;;;;;3051114;19;5119;-70
2023/05/25 06:16:35;;;;;;;;;;;22.80;41.50;;;;;;3049977;19;5091;-70
2023/05/25 06:17:35;;;;;;;;;;;22.80;41.40;;;;;;3047551;19;5057;-69
2023/05/25 06:18:37;;;;;;;;;;;22.80;41.50;;;;;;3051830;19;4556;-79
2023/05/25 06:19:37;;;;;;;;;;;22.80;41.60;;;;;;3049850;19;5336;-81
2023/05/25 06:20:38;;;;;;;;;;;22.80;41.60;;;;;;3049591;19;5507;-80
2023/05/25 06:21:38;;;;;;;;;;;22.80;41.50;;;;;;3051125;19;5002;-80
2023/05/25 06:22:39;;;;;;;;;;;22.80;41.60;;;;;;3050320;19;4348;-80
2023/05/25 06:23:40;;;;;;;;;;;22.80;41.70;;;;;;3050493;19;5413;-80
2023/05/25 06:24:40;;;;;;;;;;;22.80;41.80;;;;;;3050858;19;5526;-80
2023/05/25 06:25:41;;;;;;;;;;;22.80;41.80;;;;;;3051711;19;5118;-80
2023/05/25 06:26:42;;;;;;;;;;;22.80;42.00;;;;;;3051862;19;4543;-80
2023/05/25 06:27:43;;;;;;;;;;;22.80;41.90;;;;;;3050810;19;4435;-80
2023/05/25 06:28:45;;;;;;;;;;;22.80;41.90;;;;;;3053181;19;5115;-80
2023/05/25 06:29:46;;;;;;;;;;;22.80;41.80;;;;;;3051861;19;4878;-80
2023/05/25 06:30:46;;;;;;;;;;;22.80;42.00;;;;;;3049970;19;4880;-80
2023/05/25 06:31:47;;;;;;;;;;;22.90;42.10;;;;;;3052294;19;4617;-81
2023/05/25 06:32:48;;;;;;;;;;;22.80;42.10;;;;;;3052810;19;5016;-80
2023/05/25 06:33:48;;;;;;;;;;;22.80;41.90;;;;;;3052141;19;5087;-80
2023/05/25 06:34:49;;;;;;;;;;;22.80;41.80;;;;;;3053064;19;4351;-80
2023/05/25 06:35:51;;;;;;;;;;;22.80;41.90;;;;;;3051607;19;5123;-80
2023/05/25 06:36:52;;;;;;;;;;;22.80;41.90;;;;;;3050282;19;5029;-80
2023/05/25 06:37:52;;;;;;;;;;;22.80;42.10;;;;;;3050332;19;4448;-80
2023/05/25 06:38:53;;;;;;;;;;;22.80;42.10;;;;;;3051619;19;4367;-80
2023/05/25 06:39:54;;;;;;;;;;;22.80;42.00;;;;;;3050388;19;5134;-80
2023/05/25 06:40:55;;;;;;;;;;;22.80;42.10;;;;;;3052272;19;4384;-80
2023/05/25 06:41:56;;;;;;;;;;;22.80;42.20;;;;;;3052368;19;5087;-80
2023/05/25 06:42:56;;;;;;;;;;;22.80;42.30;;;;;;3052920;19;4999;-80
2023/05/25 06:43:57;;;;;;;;;;;22.80;42.40;;;;;;3052900;19;5030;-80
2023/05/25 06:44:58;;;;;;;;;;;22.80;42.50;;;;;;3052161;19;4378;-80
2023/05/25 06:45:58;;;;;;;;;;;22.80;42.50;;;;;;3052540;19;5415;-80
2023/05/25 06:46:59;;;;;;;;;;;22.80;42.60;;;;;;3051933;19;4468;-80
2023/05/25 06:48:00;;;;;;;;;;;22.80;42.60;;;;;;3049944;19;4986;-80
2023/05/25 06:49:01;;;;;;;;;;;22.80;42.70;;;;;;3049787;19;4578;-80
2023/05/25 06:50:02;;;;;;;;;;;22.80;42.70;;;;;;3051298;19;5138;-80
2023/05/25 06:51:03;;;;;;;;;;;22.80;42.70;;;;;;3051229;19;5605;-80
2023/05/25 06:52:03;;;;;;;;;;;22.80;42.70;;;;;;3048789;19;4498;-80
2023/05/25 06:53:04;;;;;;;;;;;22.80;42.70;;;;;;3051860;19;5024;-80
2023/05/25 06:54:07;;;;;;;;;;;22.80;42.70;;;;;;3052243;19;4497;-79
2023/05/25 06:55:08;;;;;;;;;;;22.80;42.80;;;;;;3050026;19;5026;-79
2023/05/25 06:56:09;;;;;;;;;;;22.80;42.80;;;;;;3052489;19;892;-79
2023/05/25 06:57:09;;;;;;;;;;;22.80;42.90;;;;;;3051722;19;5060;-79
2023/05/25 06:58:10;;;;;;;;;;;22.80;42.90;;;;;;3051157;19;843;-79
2023/05/25 06:59:11;;;;;;;;;;;22.80;42.90;;;;;;3050816;19;4394;-79
2023/05/25 07:00:12;;;;;;;;;;;22.90;43.00;;;;;;3051424;19;877;-79
2023/05/25 07:01:13;;;;;;;;;;;22.80;43.20;;;;;;3054209;19;4565;-79
2023/05/25 07:02:13;;;;;;;;;;;22.80;43.00;;;;;;3052118;19;5060;-79
2023/05/25 07:03:14;;;;;;;;;;;22.80;43.00;;;;;;3051643;19;4544;-79
2023/05/25 07:04:15;;;;;;;;;;;22.80;43.10;;;;;;3053879;19;1065;-79
2023/05/25 07:05:15;;;;;;;;;;;22.80;43.00;;;;;;3051821;19;4938;-79
2023/05/25 07:06:16;;;;;;;;;;;22.80;43.20;;;;;;3052721;19;5123;-79
2023/05/25 07:07:17;;;;;;;;;;;22.80;43.30;;;;;;3053421;19;5263;-79
2023/05/25 07:08:17;;;;;;;;;;;22.80;43.20;;;;;;3052102;19;5194;-79
2023/05/25 07:09:18;;;;;;;;;;;22.80;43.10;;;;;;3051522;19;4683;-79
2023/05/25 07:10:19;;;;;;;;;;;22.80;43.10;;;;;;3051951;19;4988;-80
2023/05/25 07:11:20;;;;;;;;;;;22.80;43.20;;;;;;3050870;19;5054;-79
2023/05/25 07:12:21;;;;;;;;;;;22.80;43.20;;;;;;3051693;19;4391;-80
2023/05/25 07:13:22;;;;;;;;;;;22.80;43.00;;;;;;3052993;19;4379;-80